sensor_id;sensor_type;location;lat;lon;timestamp;P1;durP1;ratioP1;P2;durP2;ratioP2
38611;SDS011;24368;52.156;20.788;2023-07-20T00:01:41;5.40;;;1.70;;
38611;SDS011;24368;52.156;20.788;2023-07-20T00:11:48;1.90;;;1.70;;
38611;SDS011;24368;52.156;20.788;2023-07-20T00:16:54;2.40;;;1.90;;
38611;SDS011;24368;52.156;20.788;2023-07-20T00:21:57;4.60;;;2.20;;
38611;SDS011;24368;52.156;20.788;2023-07-20T00:26:59;2.20;;;1.90;;
38611;SDS011;24368;52.156;20.788;2023-07-20T00:32:02;2.40;;;2.00;;
38611;SDS011;24368;52.156;20.788;2023-07-20T00:37:06;2.10;;;2.00;;
38611;SDS011;24368;52.156;20.788;2023-07-20T00:42:08;3.50;;;2.40;;
38611;SDS011;24368;52.156;20.788;2023-07-20T00:47:10;3.30;;;1.70;;
38611;SDS011;24368;52.156;20.788;2023-07-20T00:52:13;3.20;;;1.90;;
38611;SDS011;24368;52.156;20.788;2023-07-20T00:57:16;4.20;;;2.20;;
38611;SDS011;24368;52.156;20.788;2023-07-20T01:02:20;2.40;;;1.90;;
38611;SDS011;24368;52.156;20.788;2023-07-20T01:07:32;2.50;;;2.30;;
38611;SDS011;24368;52.156;20.788;2023-07-20T01:12:41;2.10;;;1.80;;
38611;SDS011;24368;52.156;20.788;2023-07-20T01:17:44;2.20;;;2.00;;
38611;SDS011;24368;52.156;20.788;2023-07-20T01:33:43;3.40;;;2.60;;
38611;SDS011;24368;52.156;20.788;2023-07-20T01:38:47;3.70;;;2.60;;
38611;SDS011;24368;52.156;20.788;2023-07-20T01:43:50;3.00;;;2.40;;
38611;SDS011;24368;52.156;20.788;2023-07-20T01:48:52;2.50;;;2.20;;
38611;SDS011;24368;52.156;20.788;2023-07-20T01:53:54;3.80;;;3.40;;
38611;SDS011;24368;52.156;20.788;2023-07-20T01:58:56;5.20;;;2.60;;
38611;SDS011;24368;52.156;20.788;2023-07-20T02:03:58;5.60;;;3.10;;
38611;SDS011;24368;52.156;20.788;2023-07-20T02:08:59;3.60;;;2.80;;
38611;SDS011;24368;52.156;20.788;2023-07-20T02:14:01;4.10;;;2.40;;
38611;SDS011;24368;52.156;20.788;2023-07-20T02:19:03;3.40;;;3.10;;
38611;SDS011;24368;52.156;20.788;2023-07-20T02:24:08;4.10;;;3.10;;
38611;SDS011;24368;52.156;20.788;2023-07-20T02:29:10;3.20;;;2.50;;
38611;SDS011;24368;52.156;20.788;2023-07-20T02:34:15;4.10;;;2.90;;
38611;SDS011;24368;52.156;20.788;2023-07-20T02:39:17;4.30;;;3.20;;
38611;SDS011;24368;52.156;20.788;2023-07-20T02:44:18;4.30;;;2.60;;
38611;SDS011;24368;52.156;20.788;2023-07-20T02:49:20;4.30;;;2.70;;
38611;SDS011;24368;52.156;20.788;2023-07-20T02:54:22;4.00;;;3.10;;
38611;SDS011;24368;52.156;20.788;2023-07-20T02:59:24;3.30;;;3.00;;
38611;SDS011;24368;52.156;20.788;2023-07-20T03:04:26;7.40;;;3.00;;
38611;SDS011;24368;52.156;20.788;2023-07-20T03:09:28;3.30;;;2.50;;
38611;SDS011;24368;52.156;20.788;2023-07-20T03:14:30;3.40;;;3.00;;
38611;SDS011;24368;52.156;20.788;2023-07-20T03:19:32;4.20;;;2.90;;
38611;SDS011;24368;52.156;20.788;2023-07-20T03:24:34;4.10;;;3.40;;
38611;SDS011;24368;52.156;20.788;2023-07-20T03:29:35;4.30;;;3.10;;
38611;SDS011;24368;52.156;20.788;2023-07-20T03:34:37;4.60;;;3.00;;
38611;SDS011;24368;52.156;20.788;2023-07-20T03:39:39;3.70;;;3.40;;
38611;SDS011;24368;52.156;20.788;2023-07-20T03:44:41;4.10;;;3.20;;
38611;SDS011;24368;52.156;20.788;2023-07-20T03:49:42;3.90;;;3.30;;
38611;SDS011;24368;52.156;20.788;2023-07-20T03:54:45;4.00;;;3.20;;
38611;SDS011;24368;52.156;20.788;2023-07-20T03:59:47;4.80;;;3.20;;
38611;SDS011;24368;52.156;20.788;2023-07-20T04:04:50;3.80;;;3.30;;
38611;SDS011;24368;52.156;20.788;2023-07-20T04:09:52;4.60;;;3.50;;
38611;SDS011;24368;52.156;20.788;2023-07-20T04:14:53;3.60;;;3.30;;
38611;SDS011;24368;52.156;20.788;2023-07-20T04:19:55;7.10;;;4.00;;
38611;SDS011;24368;52.156;20.788;2023-07-20T04:24:57;4.70;;;4.00;;
38611;SDS011;24368;52.156;20.788;2023-07-20T04:29:59;4.00;;;3.70;;
38611;SDS011;24368;52.156;20.788;2023-07-20T04:35:08;3.70;;;3.40;;
38611;SDS011;24368;52.156;20.788;2023-07-20T04:40:10;5.10;;;4.60;;
38611;SDS011;24368;52.156;20.788;2023-07-20T04:45:13;6.80;;;4.40;;
38611;SDS011;24368;52.156;20.788;2023-07-20T04:50:15;8.00;;;6.70;;
38611;SDS011;24368;52.156;20.788;2023-07-20T04:55:17;8.40;;;5.10;;
38611;SDS011;24368;52.156;20.788;2023-07-20T05:00:19;5.60;;;5.10;;
38611;SDS011;24368;52.156;20.788;2023-07-20T05:05:23;5.30;;;4.80;;
38611;SDS011;24368;52.156;20.788;2023-07-20T05:10:25;5.00;;;4.50;;
38611;SDS011;24368;52.156;20.788;2023-07-20T05:15:26;5.30;;;4.80;;
38611;SDS011;24368;52.156;20.788;2023-07-20T05:20:28;5.40;;;4.10;;
38611;SDS011;24368;52.156;20.788;2023-07-20T05:25:31;5.20;;;4.20;;
38611;SDS011;24368;52.156;20.788;2023-07-20T05:30:33;6.70;;;4.00;;
38611;SDS011;24368;52.156;20.788;2023-07-20T05:35:35;3.70;;;3.40;;
38611;SDS011;24368;52.156;20.788;2023-07-20T05:40:39;5.40;;;4.40;;
38611;SDS011;24368;52.156;20.788;2023-07-20T05:45:45;3.90;;;3.60;;
38611;SDS011;24368;52.156;20.788;2023-07-20T05:50:49;5.40;;;3.80;;
38611;SDS011;24368;52.156;20.788;2023-07-20T05:55:54;4.30;;;3.50;;
38611;SDS011;24368;52.156;20.788;2023-07-20T06:05:58;5.40;;;4.90;;
38611;SDS011;24368;52.156;20.788;2023-07-20T06:11:03;4.40;;;4.00;;
38611;SDS011;24368;52.156;20.788;2023-07-20T06:16:05;5.10;;;4.60;;
38611;SDS011;24368;52.156;20.788;2023-07-20T06:21:07;5.00;;;4.20;;
38611;SDS011;24368;52.156;20.788;2023-07-20T06:26:09;4.20;;;3.80;;
38611;SDS011;24368;52.156;20.788;2023-07-20T06:31:10;5.00;;;3.80;;
38611;SDS011;24368;52.156;20.788;2023-07-20T06:36:13;4.40;;;4.00;;
38611;SDS011;24368;52.156;20.788;2023-07-20T06:41:15;6.00;;;4.30;;
38611;SDS011;24368;52.156;20.788;2023-07-20T06:46:17;7.90;;;4.60;;
38611;SDS011;24368;52.156;20.788;2023-07-20T06:51:18;6.90;;;4.00;;
38611;SDS011;24368;52.156;20.788;2023-07-20T06:56:21;5.20;;;4.30;;
38611;SDS011;24368;52.156;20.788;2023-07-20T07:01:22;5.20;;;4.50;;
38611;SDS011;24368;52.156;20.788;2023-07-20T07:06:24;5.10;;;4.70;;
38611;SDS011;24368;52.156;20.788;2023-07-20T07:11:26;5.40;;;4.50;;
38611;SDS011;24368;52.156;20.788;2023-07-20T07:16:29;4.90;;;3.70;;
38611;SDS011;24368;52.156;20.788;2023-07-20T07:21:31;5.20;;;3.90;;
38611;SDS011;24368;52.156;20.788;2023-07-20T07:26:33;3.80;;;3.40;;
38611;SDS011;24368;52.156;20.788;2023-07-20T07:31:35;4.80;;;4.30;;
38611;SDS011;24368;52.156;20.788;2023-07-20T07:36:37;5.50;;;4.30;;
38611;SDS011;24368;52.156;20.788;2023-07-20T07:41:39;5.60;;;4.10;;
38611;SDS011;24368;52.156;20.788;2023-07-20T07:46:41;5.20;;;4.30;;
38611;SDS011;24368;52.156;20.788;2023-07-20T07:51:43;4.70;;;4.20;;
38611;SDS011;24368;52.156;20.788;2023-07-20T07:56:44;4.10;;;3.70;;
38611;SDS011;24368;52.156;20.788;2023-07-20T08:01:46;6.30;;;4.40;;
38611;SDS011;24368;52.156;20.788;2023-07-20T08:06:48;4.60;;;4.10;;
38611;SDS011;24368;52.156;20.788;2023-07-20T08:11:50;4.50;;;4.00;;
38611;SDS011;24368;52.156;20.788;2023-07-20T08:16:52;4.30;;;3.90;;
38611;SDS011;24368;52.156;20.788;2023-07-20T08:21:55;4.80;;;4.40;;
38611;SDS011;24368;52.156;20.788;2023-07-20T08:26:57;4.00;;;3.60;;
38611;SDS011;24368;52.156;20.788;2023-07-20T08:31:58;5.10;;;4.00;;
38611;SDS011;24368;52.156;20.788;2023-07-20T08:37:00;4.90;;;3.50;;
38611;SDS011;24368;52.156;20.788;2023-07-20T08:42:02;4.30;;;3.50;;
38611;SDS011;24368;52.156;20.788;2023-07-20T08:47:07;4.30;;;4.00;;
38611;SDS011;24368;52.156;20.788;2023-07-20T08:52:10;8.40;;;3.40;;
38611;SDS011;24368;52.156;20.788;2023-07-20T08:57:13;4.70;;;4.20;;
38611;SDS011;24368;52.156;20.788;2023-07-20T09:02:16;3.40;;;3.10;;
38611;SDS011;24368;52.156;20.788;2023-07-20T09:07:19;5.40;;;4.80;;
38611;SDS011;24368;52.156;20.788;2023-07-20T09:12:21;5.60;;;4.30;;
38611;SDS011;24368;52.156;20.788;2023-07-20T09:17:24;3.50;;;3.00;;
38611;SDS011;24368;52.156;20.788;2023-07-20T09:22:30;3.10;;;2.80;;
38611;SDS011;24368;52.156;20.788;2023-07-20T09:27:39;4.70;;;3.40;;
38611;SDS011;24368;52.156;20.788;2023-07-20T09:32:44;6.00;;;4.80;;
38611;SDS011;24368;52.156;20.788;2023-07-20T09:37:57;5.70;;;4.20;;
38611;SDS011;24368;52.156;20.788;2023-07-20T09:43:00;5.30;;;3.40;;
38611;SDS011;24368;52.156;20.788;2023-07-20T09:48:04;5.90;;;5.00;;
38611;SDS011;24368;52.156;20.788;2023-07-20T09:53:12;3.70;;;3.40;;
38611;SDS011;24368;52.156;20.788;2023-07-20T09:58:16;3.80;;;2.70;;
38611;SDS011;24368;52.156;20.788;2023-07-20T10:03:19;3.10;;;2.70;;
38611;SDS011;24368;52.156;20.788;2023-07-20T10:08:23;3.30;;;2.70;;
38611;SDS011;24368;52.156;20.788;2023-07-20T10:13:27;4.30;;;3.60;;
38611;SDS011;24368;52.156;20.788;2023-07-20T10:23:55;3.40;;;3.10;;
38611;SDS011;24368;52.156;20.788;2023-07-20T10:28:57;4.00;;;3.30;;
38611;SDS011;24368;52.156;20.788;2023-07-20T10:34:00;5.10;;;3.60;;
38611;SDS011;24368;52.156;20.788;2023-07-20T10:39:03;4.20;;;3.80;;
38611;SDS011;24368;52.156;20.788;2023-07-20T10:44:06;3.50;;;3.20;;
38611;SDS011;24368;52.156;20.788;2023-07-20T10:49:09;4.70;;;3.30;;
38611;SDS011;24368;52.156;20.788;2023-07-20T10:59:35;2.90;;;2.60;;
38611;SDS011;24368;52.156;20.788;2023-07-20T11:04:42;3.30;;;3.00;;
38611;SDS011;24368;52.156;20.788;2023-07-20T11:09:45;3.40;;;3.00;;
38611;SDS011;24368;52.156;20.788;2023-07-20T11:14:54;2.80;;;2.60;;
38611;SDS011;24368;52.156;20.788;2023-07-20T11:20:00;3.40;;;3.10;;
38611;SDS011;24368;52.156;20.788;2023-07-20T11:25:04;2.10;;;1.90;;
38611;SDS011;24368;52.156;20.788;2023-07-20T11:30:15;4.00;;;2.20;;
38611;SDS011;24368;52.156;20.788;2023-07-20T11:35:23;2.50;;;2.10;;
38611;SDS011;24368;52.156;20.788;2023-07-20T11:40:26;2.30;;;1.80;;
38611;SDS011;24368;52.156;20.788;2023-07-20T11:45:27;2.50;;;2.30;;
38611;SDS011;24368;52.156;20.788;2023-07-20T11:50:38;2.50;;;2.20;;
38611;SDS011;24368;52.156;20.788;2023-07-20T11:55:41;3.40;;;3.00;;
38611;SDS011;24368;52.156;20.788;2023-07-20T12:00:44;2.50;;;2.30;;
38611;SDS011;24368;52.156;20.788;2023-07-20T12:05:47;4.60;;;2.60;;
38611;SDS011;24368;52.156;20.788;2023-07-20T12:10:51;2.80;;;2.60;;
38611;SDS011;24368;52.156;20.788;2023-07-20T12:15:53;2.50;;;2.30;;
38611;SDS011;24368;52.156;20.788;2023-07-20T12:20:58;3.40;;;2.90;;
38611;SDS011;24368;52.156;20.788;2023-07-20T12:31:03;3.80;;;2.60;;
38611;SDS011;24368;52.156;20.788;2023-07-20T12:36:05;2.50;;;2.30;;
38611;SDS011;24368;52.156;20.788;2023-07-20T12:41:07;2.60;;;2.40;;
38611;SDS011;24368;52.156;20.788;2023-07-20T12:46:09;2.50;;;2.30;;
38611;SDS011;24368;52.156;20.788;2023-07-20T12:51:13;2.80;;;2.30;;
38611;SDS011;24368;52.156;20.788;2023-07-20T12:56:16;2.40;;;2.20;;
38611;SDS011;24368;52.156;20.788;2023-07-20T13:01:20;3.60;;;2.20;;
38611;SDS011;24368;52.156;20.788;2023-07-20T13:06:22;2.10;;;2.00;;
38611;SDS011;24368;52.156;20.788;2023-07-20T13:11:24;2.50;;;2.30;;
38611;SDS011;24368;52.156;20.788;2023-07-20T13:16:26;2.50;;;2.20;;
38611;SDS011;24368;52.156;20.788;2023-07-20T13:21:28;2.20;;;2.00;;
38611;SDS011;24368;52.156;20.788;2023-07-20T13:26:30;2.20;;;2.00;;
38611;SDS011;24368;52.156;20.788;2023-07-20T13:31:32;2.50;;;2.30;;
38611;SDS011;24368;52.156;20.788;2023-07-20T13:36:34;1.90;;;1.80;;
38611;SDS011;24368;52.156;20.788;2023-07-20T13:41:36;2.70;;;2.20;;
38611;SDS011;24368;52.156;20.788;2023-07-20T13:46:38;2.00;;;1.80;;
38611;SDS011;24368;52.156;20.788;2023-07-20T13:51:44;2.20;;;2.00;;
38611;SDS011;24368;52.156;20.788;2023-07-20T13:56:46;2.70;;;1.60;;
38611;SDS011;24368;52.156;20.788;2023-07-20T14:01:47;2.20;;;2.00;;
38611;SDS011;24368;52.156;20.788;2023-07-20T14:06:49;2.40;;;2.20;;
38611;SDS011;24368;52.156;20.788;2023-07-20T14:11:51;2.90;;;2.60;;
38611;SDS011;24368;52.156;20.788;2023-07-20T14:16:53;1.80;;;1.70;;
38611;SDS011;24368;52.156;20.788;2023-07-20T14:21:55;1.80;;;1.60;;
38611;SDS011;24368;52.156;20.788;2023-07-20T14:26:56;1.40;;;1.30;;
38611;SDS011;24368;52.156;20.788;2023-07-20T14:31:58;2.20;;;1.50;;
38611;SDS011;24368;52.156;20.788;2023-07-20T14:37:00;1.90;;;1.30;;
38611;SDS011;24368;52.156;20.788;2023-07-20T14:42:04;1.50;;;0.80;;
38611;SDS011;24368;52.156;20.788;2023-07-20T14:47:06;0.70;;;0.70;;
38611;SDS011;24368;52.156;20.788;2023-07-20T14:52:08;0.70;;;0.70;;
38611;SDS011;24368;52.156;20.788;2023-07-20T14:57:10;0.60;;;0.60;;
38611;SDS011;24368;52.156;20.788;2023-07-20T15:02:15;3.50;;;0.80;;
38611;SDS011;24368;52.156;20.788;2023-07-20T15:07:21;1.00;;;1.00;;
38611;SDS011;24368;52.156;20.788;2023-07-20T15:12:25;2.00;;;1.50;;
38611;SDS011;24368;52.156;20.788;2023-07-20T15:17:27;1.50;;;1.40;;
38611;SDS011;24368;52.156;20.788;2023-07-20T15:22:29;2.00;;;1.90;;
38611;SDS011;24368;52.156;20.788;2023-07-20T15:27:32;1.80;;;1.70;;
38611;SDS011;24368;52.156;20.788;2023-07-20T15:32:34;2.70;;;1.30;;
38611;SDS011;24368;52.156;20.788;2023-07-20T15:37:36;1.60;;;1.50;;
38611;SDS011;24368;52.156;20.788;2023-07-20T15:42:38;1.40;;;1.30;;
38611;SDS011;24368;52.156;20.788;2023-07-20T15:47:41;1.50;;;1.40;;
38611;SDS011;24368;52.156;20.788;2023-07-20T15:52:42;3.90;;;3.50;;
38611;SDS011;24368;52.156;20.788;2023-07-20T15:57:45;1.90;;;1.70;;
38611;SDS011;24368;52.156;20.788;2023-07-20T16:02:46;1.50;;;1.40;;
38611;SDS011;24368;52.156;20.788;2023-07-20T16:07:48;2.30;;;2.10;;
38611;SDS011;24368;52.156;20.788;2023-07-20T16:12:50;1.80;;;1.70;;
38611;SDS011;24368;52.156;20.788;2023-07-20T16:17:52;2.80;;;0.90;;
38611;SDS011;24368;52.156;20.788;2023-07-20T16:22:54;3.60;;;1.80;;
38611;SDS011;24368;52.156;20.788;2023-07-20T16:27:56;2.60;;;1.50;;
38611;SDS011;24368;52.156;20.788;2023-07-20T16:32:57;0.80;;;0.60;;
38611;SDS011;24368;52.156;20.788;2023-07-20T16:37:59;3.60;;;0.60;;
38611;SDS011;24368;52.156;20.788;2023-07-20T16:43:03;1.00;;;0.70;;
38611;SDS011;24368;52.156;20.788;2023-07-20T16:48:05;1.50;;;0.70;;
38611;SDS011;24368;52.156;20.788;2023-07-20T16:53:07;1.50;;;0.70;;
38611;SDS011;24368;52.156;20.788;2023-07-20T16:58:09;0.80;;;0.80;;
38611;SDS011;24368;52.156;20.788;2023-07-20T17:03:11;1.30;;;0.80;;
38611;SDS011;24368;52.156;20.788;2023-07-20T17:08:13;1.10;;;0.80;;
38611;SDS011;24368;52.156;20.788;2023-07-20T17:13:15;1.50;;;0.90;;
38611;SDS011;24368;52.156;20.788;2023-07-20T17:18:18;1.90;;;1.00;;
38611;SDS011;24368;52.156;20.788;2023-07-20T17:23:20;2.20;;;0.90;;
38611;SDS011;24368;52.156;20.788;2023-07-20T17:28:21;6.40;;;1.00;;
38611;SDS011;24368;52.156;20.788;2023-07-20T17:33:23;1.00;;;0.90;;
38611;SDS011;24368;52.156;20.788;2023-07-20T17:38:25;2.20;;;1.30;;
38611;SDS011;24368;52.156;20.788;2023-07-20T17:43:39;1.80;;;1.00;;
38611;SDS011;24368;52.156;20.788;2023-07-20T17:48:45;1.20;;;0.90;;
38611;SDS011;24368;52.156;20.788;2023-07-20T17:53:46;1.50;;;0.70;;
38611;SDS011;24368;52.156;20.788;2023-07-20T17:58:48;0.70;;;0.70;;
38611;SDS011;24368;52.156;20.788;2023-07-20T18:03:50;1.40;;;0.80;;
38611;SDS011;24368;52.156;20.788;2023-07-20T18:08:52;4.00;;;1.20;;
38611;SDS011;24368;52.156;20.788;2023-07-20T18:13:54;0.80;;;0.80;;
38611;SDS011;24368;52.156;20.788;2023-07-20T18:18:56;1.20;;;1.10;;
38611;SDS011;24368;52.156;20.788;2023-07-20T18:23:57;1.30;;;0.90;;
38611;SDS011;24368;52.156;20.788;2023-07-20T18:28:59;1.30;;;1.10;;
38611;SDS011;24368;52.156;20.788;2023-07-20T18:34:02;0.80;;;0.80;;
38611;SDS011;24368;52.156;20.788;2023-07-20T18:39:04;1.60;;;0.90;;
38611;SDS011;24368;52.156;20.788;2023-07-20T18:44:06;3.20;;;1.40;;
38611;SDS011;24368;52.156;20.788;2023-07-20T18:49:07;1.10;;;1.10;;
38611;SDS011;24368;52.156;20.788;2023-07-20T18:54:09;3.00;;;2.40;;
38611;SDS011;24368;52.156;20.788;2023-07-20T18:59:11;2.00;;;1.50;;
38611;SDS011;24368;52.156;20.788;2023-07-20T19:04:13;1.90;;;1.40;;
38611;SDS011;24368;52.156;20.788;2023-07-20T19:09:15;2.00;;;1.60;;
38611;SDS011;24368;52.156;20.788;2023-07-20T19:14:17;1.60;;;1.40;;
38611;SDS011;24368;52.156;20.788;2023-07-20T19:19:18;3.50;;;1.80;;
38611;SDS011;24368;52.156;20.788;2023-07-20T19:24:24;2.50;;;1.50;;
38611;SDS011;24368;52.156;20.788;2023-07-20T19:29:26;2.30;;;1.70;;
38611;SDS011;24368;52.156;20.788;2023-07-20T19:34:28;1.90;;;1.20;;
38611;SDS011;24368;52.156;20.788;2023-07-20T19:39:30;2.30;;;1.50;;
38611;SDS011;24368;52.156;20.788;2023-07-20T19:44:31;2.20;;;1.60;;
38611;SDS011;24368;52.156;20.788;2023-07-20T19:49:33;2.40;;;1.80;;
38611;SDS011;24368;52.156;20.788;2023-07-20T19:54:35;2.70;;;1.70;;
38611;SDS011;24368;52.156;20.788;2023-07-20T19:59:37;1.60;;;1.50;;
38611;SDS011;24368;52.156;20.788;2023-07-20T20:04:39;1.90;;;1.60;;
38611;SDS011;24368;52.156;20.788;2023-07-20T20:09:42;2.50;;;2.00;;
38611;SDS011;24368;52.156;20.788;2023-07-20T20:14:44;2.20;;;2.00;;
38611;SDS011;24368;52.156;20.788;2023-07-20T20:19:46;4.80;;;3.30;;
38611;SDS011;24368;52.156;20.788;2023-07-20T20:24:50;3.50;;;2.90;;
38611;SDS011;24368;52.156;20.788;2023-07-20T20:29:53;2.60;;;2.20;;
38611;SDS011;24368;52.156;20.788;2023-07-20T20:34:56;2.40;;;2.20;;
38611;SDS011;24368;52.156;20.788;2023-07-20T20:39:59;2.80;;;2.50;;
38611;SDS011;24368;52.156;20.788;2023-07-20T20:45:00;2.60;;;2.30;;
38611;SDS011;24368;52.156;20.788;2023-07-20T20:50:03;2.40;;;2.00;;
38611;SDS011;24368;52.156;20.788;2023-07-20T20:55:05;2.30;;;2.20;;
38611;SDS011;24368;52.156;20.788;2023-07-20T21:00:08;2.80;;;2.10;;
38611;SDS011;24368;52.156;20.788;2023-07-20T21:05:10;3.60;;;2.00;;
38611;SDS011;24368;52.156;20.788;2023-07-20T21:10:12;4.40;;;2.10;;
38611;SDS011;24368;52.156;20.788;2023-07-20T21:15:15;1.90;;;1.80;;
38611;SDS011;24368;52.156;20.788;2023-07-20T21:20:17;3.20;;;2.00;;
38611;SDS011;24368;52.156;20.788;2023-07-20T21:25:21;2.80;;;2.00;;
38611;SDS011;24368;52.156;20.788;2023-07-20T21:30:22;1.60;;;1.50;;
38611;SDS011;24368;52.156;20.788;2023-07-20T21:35:28;2.40;;;2.10;;
38611;SDS011;24368;52.156;20.788;2023-07-20T21:40:30;2.30;;;2.10;;
38611;SDS011;24368;52.156;20.788;2023-07-20T21:45:32;1.80;;;1.70;;
38611;SDS011;24368;52.156;20.788;2023-07-20T21:50:33;1.80;;;1.70;;
38611;SDS011;24368;52.156;20.788;2023-07-20T21:55:35;1.60;;;1.40;;
38611;SDS011;24368;52.156;20.788;2023-07-20T22:00:37;2.10;;;1.70;;
38611;SDS011;24368;52.156;20.788;2023-07-20T22:05:42;1.90;;;1.80;;
38611;SDS011;24368;52.156;20.788;2023-07-20T22:10:46;2.20;;;1.80;;
38611;SDS011;24368;52.156;20.788;2023-07-20T22:15:48;2.10;;;1.60;;
38611;SDS011;24368;52.156;20.788;2023-07-20T22:20:52;1.50;;;1.40;;
38611;SDS011;24368;52.156;20.788;2023-07-20T22:25:54;1.80;;;1.60;;
38611;SDS011;24368;52.156;20.788;2023-07-20T22:30:57;3.20;;;1.80;;
38611;SDS011;24368;52.156;20.788;2023-07-20T22:35:59;4.20;;;1.70;;
38611;SDS011;24368;52.156;20.788;2023-07-20T22:41:01;1.60;;;1.50;;
38611;SDS011;24368;52.156;20.788;2023-07-20T22:46:03;1.80;;;1.60;;
38611;SDS011;24368;52.156;20.788;2023-07-20T22:51:04;1.50;;;1.30;;
38611;SDS011;24368;52.156;20.788;2023-07-20T22:56:06;2.20;;;1.60;;
38611;SDS011;24368;52.156;20.788;2023-07-20T23:01:08;2.00;;;1.40;;
38611;SDS011;24368;52.156;20.788;2023-07-20T23:06:13;1.20;;;1.20;;
38611;SDS011;24368;52.156;20.788;2023-07-20T23:11:15;1.90;;;1.60;;
38611;SDS011;24368;52.156;20.788;2023-07-20T23:16:18;6.30;;;1.50;;
38611;SDS011;24368;52.156;20.788;2023-07-20T23:21:20;1.40;;;1.30;;
38611;SDS011;24368;52.156;20.788;2023-07-20T23:26:22;3.70;;;2.80;;
38611;SDS011;24368;52.156;20.788;2023-07-20T23:31:24;2.30;;;1.90;;
38611;SDS011;24368;52.156;20.788;2023-07-20T23:36:27;2.50;;;1.90;;
38611;SDS011;24368;52.156;20.788;2023-07-20T23:41:28;3.00;;;2.80;;
38611;SDS011;24368;52.156;20.788;2023-07-20T23:46:30;4.60;;;3.90;;
38611;SDS011;24368;52.156;20.788;2023-07-20T23:51:32;4.40;;;2.70;;
38611;SDS011;24368;52.156;20.788;2023-07-20T23:56:34;3.00;;;2.80;;
